Naples, FL

13:16 EST le 07 décembre 2016 (GMT -0500)
Artesia Naples | | Change Station

Alt. 20 ft 26.06 °N, 81.71 °W | Updated 31 seconds ago

Partly Cloudy
Partiellement nuageux
84.6 ° F
Paraît 91 ° F
N
0.0
Vent Variable Vent de Ouest

Aujourd'hui
Haut(e) -- | Bas -- ° F
--% Risque de précip.
Hier
Haut(e) -- | Bas -- ° F
Precip. -- pouce
Pression 30.03 pouce
Visibilité 10.0 Miles terrestres
Nuages Peu 4600 ft
indice de chaleur 91 ° F
Point de rosée 73 ° F
Humidité 69%
Précipitations 0.00 pouce
Profondeur de la couche neigeuse Non disponible.
7:01 AM 5:35 PM
Premier quartier, 54% visible
METAR KMKY 071815Z AUTO 00000KT 10SM FEW046 27/21 A3003 RMK AO1
Pression 30.03 pouce
Visibilité 10.0 Miles terrestres
Nuages Peu 4600 ft
indice de chaleur 91 ° F
Point de rosée 73 ° F
Humidité 69%
Précipitations 0.00 pouce
Profondeur de la couche neigeuse Non disponible.
7:01 AM 5:35 PM
Premier quartier, 54% visible
METAR KMKY 071815Z AUTO 00000KT 10SM FEW046 27/21 A3003 RMK AO1

10-Day Weather Forecast

Almanac

Astronomie

Dec. 07, 2016 Lever Coucher
Temps réel
Crépuscule civil
Crépuscule nautique
Crépuscule astronomique
Lune
Durée de lumière visible
Longueur du jour
Tomorrow will be .
, % of the Moon is Illuminated

Extrêmes aujourd'hui

State Highs State Lows

Community

WunderPhotos

Upload Photos

1,956,157 Photos téléchargées !

WunderBlog® & News

Nearby

Qualité de l'air

  Qualité de l'air Indice de la qualité de l'air Polluant
Not available.

Épaisseur de neige

Station Depth Altitude

Activité sismique

Ville Distance Mag. Time & Date
Minimum magnitude displayed is 2.5.

Températures des eaux côtières

Lieu Température

Stations

Stations météo à proximité

Emplacement de la station Température Refroidissement éolien Point de rosée Humidité Vent Precip. Alt. Mise à jour Type
                   

Watches & Warnings

There are currently no watches in effect.